sensor_id;sensor_type;location;lat;lon;timestamp;pressure;altitude;pressure_sealevel;temperature
77728;BMP280;68312;53.502;10.030;2023-04-25T00:01:15;100677.78;;;7.91
77728;BMP280;68312;53.502;10.030;2023-04-25T00:03:41;100683.69;;;7.96
77728;BMP280;68312;53.502;10.030;2023-04-25T00:06:06;100684.28;;;7.93
77728;BMP280;68312;53.502;10.030;2023-04-25T00:08:32;100687.19;;;7.92
77728;BMP280;68312;53.502;10.030;2023-04-25T00:10:58;100691.16;;;7.89
77728;BMP280;68312;53.502;10.030;2023-04-25T00:13:25;100694.69;;;7.85
77728;BMP280;68312;53.502;10.030;2023-04-25T00:15:52;100699.13;;;7.84
77728;BMP280;68312;53.502;10.030;2023-04-25T00:18:18;100698.63;;;7.82
77728;BMP280;68312;53.502;10.030;2023-04-25T00:20:44;100706.97;;;7.84
77728;BMP280;68312;53.502;10.030;2023-04-25T00:23:09;100711.69;;;7.82
77728;BMP280;68312;53.502;10.030;2023-04-25T00:25:35;100711.81;;;7.77
77728;BMP280;68312;53.502;10.030;2023-04-25T00:28:00;100711.34;;;7.75
77728;BMP280;68312;53.502;10.030;2023-04-25T00:30:26;100713.97;;;7.75
77728;BMP280;68312;53.502;10.030;2023-04-25T00:32:51;100713.47;;;7.74
77728;BMP280;68312;53.502;10.030;2023-04-25T00:35:17;100722.66;;;7.71
77728;BMP280;68312;53.502;10.030;2023-04-25T00:37:42;100714.06;;;7.71
77728;BMP280;68312;53.502;10.030;2023-04-25T00:40:08;100710.97;;;7.69
77728;BMP280;68312;53.502;10.030;2023-04-25T00:42:35;100718.31;;;7.67
77728;BMP280;68312;53.502;10.030;2023-04-25T00:45:01;100731.88;;;7.69
77728;BMP280;68312;53.502;10.030;2023-04-25T00:47:27;100725.56;;;7.70
77728;BMP280;68312;53.502;10.030;2023-04-25T00:49:53;100724.72;;;7.61
77728;BMP280;68312;53.502;10.030;2023-04-25T00:52:19;100723.94;;;7.60
77728;BMP280;68312;53.502;10.030;2023-04-25T00:54:45;100737.22;;;7.64
77728;BMP280;68312;53.502;10.030;2023-04-25T00:57:11;100723.66;;;7.62
77728;BMP280;68312;53.502;10.030;2023-04-25T00:59:37;100727.91;;;7.58
77728;BMP280;68312;53.502;10.030;2023-04-25T01:02:04;100735.44;;;7.59
77728;BMP280;68312;53.502;10.030;2023-04-25T01:04:30;100739.34;;;7.62
77728;BMP280;68312;53.502;10.030;2023-04-25T01:06:55;100726.28;;;7.62
77728;BMP280;68312;53.502;10.030;2023-04-25T01:09:22;100729.44;;;7.59
77728;BMP280;68312;53.502;10.030;2023-04-25T01:11:48;100741.88;;;7.53
77728;BMP280;68312;53.502;10.030;2023-04-25T01:14:14;100731.78;;;7.47
77728;BMP280;68312;53.502;10.030;2023-04-25T01:16:40;100733.59;;;7.46
77728;BMP280;68312;53.502;10.030;2023-04-25T01:19:08;100727.16;;;7.44
77728;BMP280;68312;53.502;10.030;2023-04-25T01:21:35;100726.97;;;7.41
77728;BMP280;68312;53.502;10.030;2023-04-25T01:24:01;100731.97;;;7.37
77728;BMP280;68312;53.502;10.030;2023-04-25T01:26:27;100741.66;;;7.37
77728;BMP280;68312;53.502;10.030;2023-04-25T01:28:53;100739.44;;;7.30
77728;BMP280;68312;53.502;10.030;2023-04-25T01:31:19;100742.22;;;7.34
77728;BMP280;68312;53.502;10.030;2023-04-25T01:33:45;100745.44;;;7.31
77728;BMP280;68312;53.502;10.030;2023-04-25T01:36:12;100752.28;;;7.27
77728;BMP280;68312;53.502;10.030;2023-04-25T01:38:39;100752.94;;;7.19
77728;BMP280;68312;53.502;10.030;2023-04-25T01:41:05;100741.75;;;7.18
77728;BMP280;68312;53.502;10.030;2023-04-25T01:43:30;100761.56;;;7.19
77728;BMP280;68312;53.502;10.030;2023-04-25T01:45:56;100757.13;;;7.20
77728;BMP280;68312;53.502;10.030;2023-04-25T01:48:22;100749.78;;;7.22
77728;BMP280;68312;53.502;10.030;2023-04-25T01:50:48;100763.00;;;7.25
77728;BMP280;68312;53.502;10.030;2023-04-25T01:53:13;100756.63;;;7.18
77728;BMP280;68312;53.502;10.030;2023-04-25T01:55:39;100763.69;;;7.17
77728;BMP280;68312;53.502;10.030;2023-04-25T01:58:05;100763.47;;;7.14
77728;BMP280;68312;53.502;10.030;2023-04-25T02:00:30;100769.47;;;7.14
77728;BMP280;68312;53.502;10.030;2023-04-25T02:02:59;100770.34;;;7.10
77728;BMP280;68312;53.502;10.030;2023-04-25T02:05:24;100767.75;;;7.10
77728;BMP280;68312;53.502;10.030;2023-04-25T02:07:50;100771.09;;;7.11
77728;BMP280;68312;53.502;10.030;2023-04-25T02:10:15;100772.19;;;7.10
77728;BMP280;68312;53.502;10.030;2023-04-25T02:12:41;100785.16;;;7.14
77728;BMP280;68312;53.502;10.030;2023-04-25T02:15:06;100779.66;;;7.16
77728;BMP280;68312;53.502;10.030;2023-04-25T02:17:32;100775.84;;;7.09
77728;BMP280;68312;53.502;10.030;2023-04-25T02:19:58;100779.31;;;7.04
77728;BMP280;68312;53.502;10.030;2023-04-25T02:22:23;100783.38;;;6.97
77728;BMP280;68312;53.502;10.030;2023-04-25T02:24:49;100786.00;;;6.97
77728;BMP280;68312;53.502;10.030;2023-04-25T02:27:14;100780.81;;;6.92
77728;BMP280;68312;53.502;10.030;2023-04-25T02:29:40;100782.63;;;6.96
77728;BMP280;68312;53.502;10.030;2023-04-25T02:32:05;100784.50;;;6.91
77728;BMP280;68312;53.502;10.030;2023-04-25T02:34:31;100773.19;;;6.82
77728;BMP280;68312;53.502;10.030;2023-04-25T02:36:56;100781.34;;;6.76
77728;BMP280;68312;53.502;10.030;2023-04-25T02:39:22;100776.72;;;6.73
77728;BMP280;68312;53.502;10.030;2023-04-25T02:41:47;100773.84;;;6.74
77728;BMP280;68312;53.502;10.030;2023-04-25T02:44:12;100775.06;;;6.77
77728;BMP280;68312;53.502;10.030;2023-04-25T02:46:38;100776.84;;;6.81
77728;BMP280;68312;53.502;10.030;2023-04-25T02:49:03;100782.56;;;6.83
77728;BMP280;68312;53.502;10.030;2023-04-25T02:51:29;100774.22;;;6.81
77728;BMP280;68312;53.502;10.030;2023-04-25T02:53:54;100771.91;;;6.80
77728;BMP280;68312;53.502;10.030;2023-04-25T02:56:20;100777.41;;;6.78
77728;BMP280;68312;53.502;10.030;2023-04-25T02:58:45;100780.00;;;6.78
77728;BMP280;68312;53.502;10.030;2023-04-25T03:01:10;100780.50;;;6.80
77728;BMP280;68312;53.502;10.030;2023-04-25T03:03:36;100780.78;;;6.79
77728;BMP280;68312;53.502;10.030;2023-04-25T03:06:02;100778.66;;;6.81
77728;BMP280;68312;53.502;10.030;2023-04-25T03:08:27;100788.72;;;6.74
77728;BMP280;68312;53.502;10.030;2023-04-25T03:10:53;100796.31;;;6.70
77728;BMP280;68312;53.502;10.030;2023-04-25T03:13:18;100801.28;;;6.72
77728;BMP280;68312;53.502;10.030;2023-04-25T03:15:43;100804.28;;;6.79
77728;BMP280;68312;53.502;10.030;2023-04-25T03:18:09;100800.41;;;6.76
77728;BMP280;68312;53.502;10.030;2023-04-25T03:20:34;100791.81;;;6.76
77728;BMP280;68312;53.502;10.030;2023-04-25T03:23:00;100797.88;;;6.71
77728;BMP280;68312;53.502;10.030;2023-04-25T03:25:25;100804.03;;;6.62
77728;BMP280;68312;53.502;10.030;2023-04-25T03:27:51;100798.38;;;6.55
77728;BMP280;68312;53.502;10.030;2023-04-25T03:30:16;100803.88;;;6.53
77728;BMP280;68312;53.502;10.030;2023-04-25T03:32:42;100803.97;;;6.49
77728;BMP280;68312;53.502;10.030;2023-04-25T03:35:07;100812.31;;;6.46
77728;BMP280;68312;53.502;10.030;2023-04-25T03:37:33;100809.38;;;6.34
77728;BMP280;68312;53.502;10.030;2023-04-25T03:39:59;100825.97;;;6.20
77728;BMP280;68312;53.502;10.030;2023-04-25T03:42:24;100827.06;;;6.19
77728;BMP280;68312;53.502;10.030;2023-04-25T03:44:51;100826.41;;;6.08
77728;BMP280;68312;53.502;10.030;2023-04-25T03:47:17;100822.38;;;6.16
77728;BMP280;68312;53.502;10.030;2023-04-25T03:49:42;100826.59;;;6.12
77728;BMP280;68312;53.502;10.030;2023-04-25T03:52:07;100824.94;;;6.21
77728;BMP280;68312;53.502;10.030;2023-04-25T03:54:33;100811.09;;;6.20
77728;BMP280;68312;53.502;10.030;2023-04-25T03:56:58;100823.88;;;6.21
77728;BMP280;68312;53.502;10.030;2023-04-25T03:59:24;100831.19;;;6.20
77728;BMP280;68312;53.502;10.030;2023-04-25T04:01:49;100828.16;;;6.13
77728;BMP280;68312;53.502;10.030;2023-04-25T04:04:15;100832.59;;;6.12
77728;BMP280;68312;53.502;10.030;2023-04-25T04:06:40;100840.72;;;6.11
77728;BMP280;68312;53.502;10.030;2023-04-25T04:09:06;100838.16;;;6.06
77728;BMP280;68312;53.502;10.030;2023-04-25T04:11:31;100847.59;;;6.02
77728;BMP280;68312;53.502;10.030;2023-04-25T04:13:57;100855.19;;;5.98
77728;BMP280;68312;53.502;10.030;2023-04-25T04:16:22;100850.03;;;5.93
77728;BMP280;68312;53.502;10.030;2023-04-25T04:18:48;100855.81;;;5.86
77728;BMP280;68312;53.502;10.030;2023-04-25T04:21:13;100862.91;;;5.85
77728;BMP280;68312;53.502;10.030;2023-04-25T04:23:39;100855.78;;;5.90
77728;BMP280;68312;53.502;10.030;2023-04-25T04:26:04;100857.69;;;5.85
77728;BMP280;68312;53.502;10.030;2023-04-25T04:28:30;100864.72;;;5.85
77728;BMP280;68312;53.502;10.030;2023-04-25T04:30:55;100857.19;;;5.83
77728;BMP280;68312;53.502;10.030;2023-04-25T04:33:20;100873.34;;;5.80
77728;BMP280;68312;53.502;10.030;2023-04-25T04:35:46;100871.03;;;5.79
77728;BMP280;68312;53.502;10.030;2023-04-25T04:38:13;100870.53;;;5.72
77728;BMP280;68312;53.502;10.030;2023-04-25T04:40:38;100870.53;;;5.72
77728;BMP280;68312;53.502;10.030;2023-04-25T04:43:04;100870.53;;;5.72
77728;BMP280;68312;53.502;10.030;2023-04-25T04:45:29;100868.31;;;5.60
77728;BMP280;68312;53.502;10.030;2023-04-25T04:47:55;100865.03;;;5.55
77728;BMP280;68312;53.502;10.030;2023-04-25T04:50:20;100873.88;;;5.54
77728;BMP280;68312;53.502;10.030;2023-04-25T04:52:46;100879.50;;;5.66
77728;BMP280;68312;53.502;10.030;2023-04-25T04:55:11;100874.97;;;5.76
77728;BMP280;68312;53.502;10.030;2023-04-25T04:57:37;100880.03;;;5.86
77728;BMP280;68312;53.502;10.030;2023-04-25T05:00:03;100875.03;;;5.94
77728;BMP280;68312;53.502;10.030;2023-04-25T05:02:31;100881.72;;;6.00
77728;BMP280;68312;53.502;10.030;2023-04-25T05:04:56;100885.34;;;6.04
77728;BMP280;68312;53.502;10.030;2023-04-25T05:07:21;100889.38;;;6.15
77728;BMP280;68312;53.502;10.030;2023-04-25T05:09:47;100881.56;;;6.15
77728;BMP280;68312;53.502;10.030;2023-04-25T05:12:12;100894.59;;;6.15
77728;BMP280;68312;53.502;10.030;2023-04-25T05:14:38;100898.50;;;6.18
77728;BMP280;68312;53.502;10.030;2023-04-25T05:17:03;100904.97;;;6.20
77728;BMP280;68312;53.502;10.030;2023-04-25T05:19:29;100911.25;;;6.19
77728;BMP280;68312;53.502;10.030;2023-04-25T05:21:54;100912.28;;;6.18
77728;BMP280;68312;53.502;10.030;2023-04-25T05:24:20;100922.19;;;6.21
77728;BMP280;68312;53.502;10.030;2023-04-25T05:26:45;100927.63;;;6.24
77728;BMP280;68312;53.502;10.030;2023-04-25T05:29:11;100936.25;;;6.20
77728;BMP280;68312;53.502;10.030;2023-04-25T05:31:36;100936.44;;;6.28
77728;BMP280;68312;53.502;10.030;2023-04-25T05:34:02;100934.47;;;6.21
77728;BMP280;68312;53.502;10.030;2023-04-25T05:36:28;100937.84;;;6.16
77728;BMP280;68312;53.502;10.030;2023-04-25T05:38:53;100936.41;;;6.10
77728;BMP280;68312;53.502;10.030;2023-04-25T05:41:18;100932.78;;;6.06
77728;BMP280;68312;53.502;10.030;2023-04-25T05:43:44;100933.53;;;6.07
77728;BMP280;68312;53.502;10.030;2023-04-25T05:46:10;100930.59;;;6.13
77728;BMP280;68312;53.502;10.030;2023-04-25T05:48:37;100920.63;;;6.20
77728;BMP280;68312;53.502;10.030;2023-04-25T05:51:03;100932.00;;;6.29
77728;BMP280;68312;53.502;10.030;2023-04-25T05:53:28;100935.56;;;6.38
77728;BMP280;68312;53.502;10.030;2023-04-25T05:55:54;100940.16;;;6.46
77728;BMP280;68312;53.502;10.030;2023-04-25T05:58:20;100943.00;;;6.49
77728;BMP280;68312;53.502;10.030;2023-04-25T06:00:45;100947.44;;;6.49
77728;BMP280;68312;53.502;10.030;2023-04-25T06:03:11;100941.59;;;6.56
77728;BMP280;68312;53.502;10.030;2023-04-25T06:05:36;100947.94;;;6.69
77728;BMP280;68312;53.502;10.030;2023-04-25T06:08:02;100944.16;;;6.80
77728;BMP280;68312;53.502;10.030;2023-04-25T06:10:27;100952.72;;;6.85
77728;BMP280;68312;53.502;10.030;2023-04-25T06:12:53;100951.16;;;6.84
77728;BMP280;68312;53.502;10.030;2023-04-25T06:15:18;100939.22;;;6.78
77728;BMP280;68312;53.502;10.030;2023-04-25T06:17:44;100959.25;;;6.82
77728;BMP280;68312;53.502;10.030;2023-04-25T06:20:10;100957.16;;;7.03
77728;BMP280;68312;53.502;10.030;2023-04-25T06:22:36;100950.25;;;7.12
77728;BMP280;68312;53.502;10.030;2023-04-25T06:25:01;100961.88;;;7.01
77728;BMP280;68312;53.502;10.030;2023-04-25T06:27:26;100955.19;;;6.95
77728;BMP280;68312;53.502;10.030;2023-04-25T06:29:52;100949.41;;;6.98
77728;BMP280;68312;53.502;10.030;2023-04-25T06:32:17;100960.56;;;7.03
77728;BMP280;68312;53.502;10.030;2023-04-25T06:34:43;100968.59;;;7.07
77728;BMP280;68312;53.502;10.030;2023-04-25T06:37:09;100964.50;;;7.01
77728;BMP280;68312;53.502;10.030;2023-04-25T06:39:34;100970.28;;;6.98
77728;BMP280;68312;53.502;10.030;2023-04-25T06:42:00;100966.25;;;6.87
77728;BMP280;68312;53.502;10.030;2023-04-25T06:44:25;100969.19;;;6.81
77728;BMP280;68312;53.502;10.030;2023-04-25T06:46:51;100967.38;;;6.81
77728;BMP280;68312;53.502;10.030;2023-04-25T06:49:16;100965.97;;;7.07
77728;BMP280;68312;53.502;10.030;2023-04-25T06:51:42;100970.28;;;7.16
77728;BMP280;68312;53.502;10.030;2023-04-25T06:54:07;100978.25;;;7.24
77728;BMP280;68312;53.502;10.030;2023-04-25T06:56:33;100969.94;;;7.41
77728;BMP280;68312;53.502;10.030;2023-04-25T06:58:58;100973.72;;;7.48
77728;BMP280;68312;53.502;10.030;2023-04-25T07:01:24;100975.81;;;7.64
77728;BMP280;68312;53.502;10.030;2023-04-25T07:03:49;100978.97;;;7.61
77728;BMP280;68312;53.502;10.030;2023-04-25T07:06:15;100983.78;;;7.73
77728;BMP280;68312;53.502;10.030;2023-04-25T07:08:40;100995.69;;;7.78
77728;BMP280;68312;53.502;10.030;2023-04-25T07:11:06;100976.66;;;7.60
77728;BMP280;68312;53.502;10.030;2023-04-25T07:13:31;100990.94;;;7.49
77728;BMP280;68312;53.502;10.030;2023-04-25T07:15:57;100989.31;;;7.53
77728;BMP280;68312;53.502;10.030;2023-04-25T07:18:22;100984.44;;;7.65
77728;BMP280;68312;53.502;10.030;2023-04-25T07:20:48;100990.28;;;7.75
77728;BMP280;68312;53.502;10.030;2023-04-25T07:23:13;100989.50;;;7.75
77728;BMP280;68312;53.502;10.030;2023-04-25T07:25:39;100998.59;;;7.77
77728;BMP280;68312;53.502;10.030;2023-04-25T07:28:04;100989.53;;;8.01
77728;BMP280;68312;53.502;10.030;2023-04-25T07:30:30;100995.47;;;8.06
77728;BMP280;68312;53.502;10.030;2023-04-25T07:32:56;100989.28;;;8.16
77728;BMP280;68312;53.502;10.030;2023-04-25T07:35:21;100990.91;;;8.12
77728;BMP280;68312;53.502;10.030;2023-04-25T07:37:47;100991.13;;;8.15
77728;BMP280;68312;53.502;10.030;2023-04-25T07:40:13;100991.22;;;8.10
77728;BMP280;68312;53.502;10.030;2023-04-25T07:42:38;100998.09;;;8.06
77728;BMP280;68312;53.502;10.030;2023-04-25T07:45:04;101003.09;;;8.03
77728;BMP280;68312;53.502;10.030;2023-04-25T07:47:30;101005.59;;;7.95
77728;BMP280;68312;53.502;10.030;2023-04-25T07:49:55;100995.28;;;8.16
77728;BMP280;68312;53.502;10.030;2023-04-25T07:52:21;100997.13;;;8.42
77728;BMP280;68312;53.502;10.030;2023-04-25T07:54:47;101003.41;;;8.41
77728;BMP280;68312;53.502;10.030;2023-04-25T07:57:12;101006.22;;;8.58
77728;BMP280;68312;53.502;10.030;2023-04-25T07:59:37;101014.19;;;8.53
77728;BMP280;68312;53.502;10.030;2023-04-25T08:02:03;101001.69;;;8.98
77728;BMP280;68312;53.502;10.030;2023-04-25T08:04:28;100995.41;;;9.21
77728;BMP280;68312;53.502;10.030;2023-04-25T08:06:54;100997.75;;;9.23
77728;BMP280;68312;53.502;10.030;2023-04-25T08:09:20;101000.97;;;8.85
77728;BMP280;68312;53.502;10.030;2023-04-25T08:11:46;101010.88;;;9.44
77728;BMP280;68312;53.502;10.030;2023-04-25T08:14:12;101013.03;;;10.32
77728;BMP280;68312;53.502;10.030;2023-04-25T08:16:38;101006.78;;;10.12
77728;BMP280;68312;53.502;10.030;2023-04-25T08:19:04;101015.13;;;10.77
77728;BMP280;68312;53.502;10.030;2023-04-25T08:21:29;101007.66;;;10.45
77728;BMP280;68312;53.502;10.030;2023-04-25T08:23:55;101009.81;;;10.35
77728;BMP280;68312;53.502;10.030;2023-04-25T08:26:20;101022.81;;;10.40
77728;BMP280;68312;53.502;10.030;2023-04-25T08:28:46;101010.75;;;10.47
77728;BMP280;68312;53.502;10.030;2023-04-25T08:31:11;101010.88;;;10.34
77728;BMP280;68312;53.502;10.030;2023-04-25T08:33:37;101013.34;;;9.92
77728;BMP280;68312;53.502;10.030;2023-04-25T08:36:03;101022.56;;;9.90
77728;BMP280;68312;53.502;10.030;2023-04-25T08:38:29;101028.75;;;9.85
77728;BMP280;68312;53.502;10.030;2023-04-25T08:40:55;101031.53;;;10.19
77728;BMP280;68312;53.502;10.030;2023-04-25T08:43:23;101037.00;;;10.01
77728;BMP280;68312;53.502;10.030;2023-04-25T08:45:52;101041.28;;;9.97
77728;BMP280;68312;53.502;10.030;2023-04-25T08:48:18;101048.97;;;10.70
77728;BMP280;68312;53.502;10.030;2023-04-25T08:50:53;101040.66;;;10.85
77728;BMP280;68312;53.502;10.030;2023-04-25T08:53:25;101049.22;;;10.43
77728;BMP280;68312;53.502;10.030;2023-04-25T08:55:58;101023.88;;;10.01
77728;BMP280;68312;53.502;10.030;2023-04-25T08:58:27;101054.31;;;9.58
77728;BMP280;68312;53.502;10.030;2023-04-25T09:00:53;101069.50;;;9.26
77728;BMP280;68312;53.502;10.030;2023-04-25T09:03:19;101086.13;;;8.95
77728;BMP280;68312;53.502;10.030;2023-04-25T09:05:45;101106.13;;;8.65
77728;BMP280;68312;53.502;10.030;2023-04-25T09:08:10;101108.84;;;8.15
77728;BMP280;68312;53.502;10.030;2023-04-25T09:10:37;101112.03;;;8.12
77728;BMP280;68312;53.502;10.030;2023-04-25T09:13:14;101111.09;;;7.54
77728;BMP280;68312;53.502;10.030;2023-04-25T09:15:53;101121.47;;;7.59
77728;BMP280;68312;53.502;10.030;2023-04-25T09:18:24;101131.63;;;7.42
77728;BMP280;68312;53.502;10.030;2023-04-25T09:21:05;101132.53;;;7.33
77728;BMP280;68312;53.502;10.030;2023-04-25T09:23:59;101122.66;;;7.07
77728;BMP280;68312;53.502;10.030;2023-04-25T09:26:26;101140.41;;;7.28
77728;BMP280;68312;53.502;10.030;2023-04-25T09:29:04;101144.06;;;7.50
77728;BMP280;68312;53.502;10.030;2023-04-25T09:31:33;101141.66;;;7.72
77728;BMP280;68312;53.502;10.030;2023-04-25T09:34:00;101131.72;;;8.23
77728;BMP280;68312;53.502;10.030;2023-04-25T09:36:26;101146.22;;;8.61
77728;BMP280;68312;53.502;10.030;2023-04-25T09:38:53;101138.84;;;9.64
77728;BMP280;68312;53.502;10.030;2023-04-25T09:41:23;101135.38;;;10.12
77728;BMP280;68312;53.502;10.030;2023-04-25T09:43:50;101135.28;;;10.25
77728;BMP280;68312;53.502;10.030;2023-04-25T09:46:16;101147.31;;;10.94
77728;BMP280;68312;53.502;10.030;2023-04-25T09:48:47;101145.50;;;11.20
77728;BMP280;68312;53.502;10.030;2023-04-25T09:51:15;101152.16;;;10.02
77728;BMP280;68312;53.502;10.030;2023-04-25T09:53:46;101172.13;;;8.75
77728;BMP280;68312;53.502;10.030;2023-04-25T09:56:12;101167.53;;;8.41
77728;BMP280;68312;53.502;10.030;2023-04-25T09:58:39;101164.88;;;8.59
77728;BMP280;68312;53.502;10.030;2023-04-25T10:01:08;101168.53;;;8.58
77728;BMP280;68312;53.502;10.030;2023-04-25T10:03:37;101154.56;;;8.49
77728;BMP280;68312;53.502;10.030;2023-04-25T10:06:08;101167.28;;;8.56
77728;BMP280;68312;53.502;10.030;2023-04-25T10:08:39;101168.69;;;9.06
77728;BMP280;68312;53.502;10.030;2023-04-25T10:11:08;101162.97;;;9.18
77728;BMP280;68312;53.502;10.030;2023-04-25T10:13:35;101172.22;;;9.50
77728;BMP280;68312;53.502;10.030;2023-04-25T10:16:04;101164.03;;;10.60
77728;BMP280;68312;53.502;10.030;2023-04-25T10:18:31;101160.09;;;11.42
77728;BMP280;68312;53.502;10.030;2023-04-25T10:21:00;101142.25;;;12.15
77728;BMP280;68312;53.502;10.030;2023-04-25T10:23:30;101157.16;;;12.47
77728;BMP280;68312;53.502;10.030;2023-04-25T10:25:58;101168.09;;;12.58
77728;BMP280;68312;53.502;10.030;2023-04-25T10:28:24;101159.78;;;11.44
77728;BMP280;68312;53.502;10.030;2023-04-25T10:31:03;101180.88;;;10.07
77728;BMP280;68312;53.502;10.030;2023-04-25T10:33:40;101162.28;;;11.74
77728;BMP280;68312;53.502;10.030;2023-04-25T10:36:12;101165.41;;;12.74
77728;BMP280;68312;53.502;10.030;2023-04-25T10:38:45;101160.00;;;13.00
77728;BMP280;68312;53.502;10.030;2023-04-25T10:41:13;101155.38;;;12.23
77728;BMP280;68312;53.502;10.030;2023-04-25T10:43:44;101133.53;;;12.59
77728;BMP280;68312;53.502;10.030;2023-04-25T10:46:24;101137.81;;;11.23
77728;BMP280;68312;53.502;10.030;2023-04-25T10:48:54;101152.34;;;11.21
77728;BMP280;68312;53.502;10.030;2023-04-25T10:51:24;101162.13;;;10.90
77728;BMP280;68312;53.502;10.030;2023-04-25T10:54:02;101159.84;;;10.89
77728;BMP280;68312;53.502;10.030;2023-04-25T11:01:44;101174.81;;;11.77
77728;BMP280;68312;53.502;10.030;2023-04-25T11:04:32;101166.09;;;11.34
77728;BMP280;68312;53.502;10.030;2023-04-25T11:07:10;101177.47;;;11.05
77728;BMP280;68312;53.502;10.030;2023-04-25T11:09:53;101177.56;;;10.45
77728;BMP280;68312;53.502;10.030;2023-04-25T11:12:19;101183.47;;;10.29
77728;BMP280;68312;53.502;10.030;2023-04-25T11:14:44;101186.69;;;10.17
77728;BMP280;68312;53.502;10.030;2023-04-25T11:17:10;101179.88;;;10.76
77728;BMP280;68312;53.502;10.030;2023-04-25T11:19:35;101181.47;;;11.83
77728;BMP280;68312;53.502;10.030;2023-04-25T11:22:02;101187.94;;;12.02
77728;BMP280;68312;53.502;10.030;2023-04-25T11:24:29;101176.97;;;13.51
77728;BMP280;68312;53.502;10.030;2023-04-25T11:27:01;101168.16;;;13.47
77728;BMP280;68312;53.502;10.030;2023-04-25T11:29:33;101177.13;;;13.54
77728;BMP280;68312;53.502;10.030;2023-04-25T11:32:00;101174.13;;;13.15
77728;BMP280;68312;53.502;10.030;2023-04-25T11:34:27;101178.31;;;13.57
77728;BMP280;68312;53.502;10.030;2023-04-25T11:36:54;101170.03;;;13.46
77728;BMP280;68312;53.502;10.030;2023-04-25T11:39:20;101170.53;;;13.92
77728;BMP280;68312;53.502;10.030;2023-04-25T11:41:46;101187.91;;;12.72
77728;BMP280;68312;53.502;10.030;2023-04-25T11:44:16;101230.56;;;11.15
77728;BMP280;68312;53.502;10.030;2023-04-25T11:46:43;101246.38;;;8.84
77728;BMP280;68312;53.502;10.030;2023-04-25T11:49:09;101251.06;;;8.01
77728;BMP280;68312;53.502;10.030;2023-04-25T11:51:39;101238.13;;;7.73
77728;BMP280;68312;53.502;10.030;2023-04-25T11:54:05;101242.03;;;8.12
77728;BMP280;68312;53.502;10.030;2023-04-25T11:56:31;101254.16;;;8.39
77728;BMP280;68312;53.502;10.030;2023-04-25T11:59:04;101240.53;;;8.42
77728;BMP280;68312;53.502;10.030;2023-04-25T12:01:31;101247.91;;;8.72
77728;BMP280;68312;53.502;10.030;2023-04-25T12:04:23;101239.91;;;9.22
77728;BMP280;68312;53.502;10.030;2023-04-25T12:06:52;101243.53;;;9.87
77728;BMP280;68312;53.502;10.030;2023-04-25T12:09:21;101236.84;;;10.98
77728;BMP280;68312;53.502;10.030;2023-04-25T12:11:56;101230.13;;;11.22
77728;BMP280;68312;53.502;10.030;2023-04-25T12:14:29;101217.66;;;12.19
77728;BMP280;68312;53.502;10.030;2023-04-25T12:17:01;101218.66;;;12.43
77728;BMP280;68312;53.502;10.030;2023-04-25T12:19:37;101224.41;;;12.37
77728;BMP280;68312;53.502;10.030;2023-04-25T12:22:10;101231.59;;;12.28
77728;BMP280;68312;53.502;10.030;2023-04-25T12:24:46;101225.38;;;13.34
77728;BMP280;68312;53.502;10.030;2023-04-25T12:27:14;101226.03;;;13.72
77728;BMP280;68312;53.502;10.030;2023-04-25T12:29:51;101219.88;;;13.48
77728;BMP280;68312;53.502;10.030;2023-04-25T12:32:19;101221.91;;;12.94
77728;BMP280;68312;53.502;10.030;2023-04-25T12:34:44;101233.47;;;12.19
77728;BMP280;68312;53.502;10.030;2023-04-25T12:37:10;101236.59;;;11.07
77728;BMP280;68312;53.502;10.030;2023-04-25T12:39:35;101241.75;;;10.61
77728;BMP280;68312;53.502;10.030;2023-04-25T12:42:01;101242.63;;;10.48
77728;BMP280;68312;53.502;10.030;2023-04-25T12:44:26;101249.09;;;10.42
77728;BMP280;68312;53.502;10.030;2023-04-25T12:46:52;101247.38;;;10.46
77728;BMP280;68312;53.502;10.030;2023-04-25T12:49:17;101245.34;;;10.65
77728;BMP280;68312;53.502;10.030;2023-04-25T12:51:43;101245.41;;;11.66
77728;BMP280;68312;53.502;10.030;2023-04-25T12:54:08;101249.81;;;12.49
77728;BMP280;68312;53.502;10.030;2023-04-25T12:56:34;101243.00;;;13.22
77728;BMP280;68312;53.502;10.030;2023-04-25T12:59:00;101233.88;;;14.00
77728;BMP280;68312;53.502;10.030;2023-04-25T13:01:27;101239.91;;;12.46
77728;BMP280;68312;53.502;10.030;2023-04-25T13:03:52;101240.72;;;11.63
77728;BMP280;68312;53.502;10.030;2023-04-25T13:06:19;101270.75;;;10.77
77728;BMP280;68312;53.502;10.030;2023-04-25T13:08:46;101283.44;;;10.11
77728;BMP280;68312;53.502;10.030;2023-04-25T13:11:11;101284.47;;;9.88
77728;BMP280;68312;53.502;10.030;2023-04-25T13:13:37;101275.66;;;9.44
77728;BMP280;68312;53.502;10.030;2023-04-25T13:16:04;101289.25;;;10.43
77728;BMP280;68312;53.502;10.030;2023-04-25T13:18:30;101276.13;;;11.49
77728;BMP280;68312;53.502;10.030;2023-04-25T13:20:57;101285.03;;;10.85
77728;BMP280;68312;53.502;10.030;2023-04-25T13:23:25;101301.25;;;10.57
77728;BMP280;68312;53.502;10.030;2023-04-25T13:25:54;101309.25;;;9.42
77728;BMP280;68312;53.502;10.030;2023-04-25T13:28:20;101312.94;;;8.47
77728;BMP280;68312;53.502;10.030;2023-04-25T13:30:46;101308.53;;;7.88
77728;BMP280;68312;53.502;10.030;2023-04-25T13:33:12;101322.97;;;7.80
77728;BMP280;68312;53.502;10.030;2023-04-25T13:35:38;101324.66;;;7.95
77728;BMP280;68312;53.502;10.030;2023-04-25T13:38:04;101322.38;;;8.30
77728;BMP280;68312;53.502;10.030;2023-04-25T13:40:29;101323.63;;;9.45
77728;BMP280;68312;53.502;10.030;2023-04-25T13:42:55;101318.75;;;10.26
77728;BMP280;68312;53.502;10.030;2023-04-25T13:45:21;101317.13;;;10.52
77728;BMP280;68312;53.502;10.030;2023-04-25T13:47:47;101319.66;;;11.17
77728;BMP280;68312;53.502;10.030;2023-04-25T13:50:13;101307.47;;;11.84
77728;BMP280;68312;53.502;10.030;2023-04-25T13:52:38;101306.63;;;11.50
77728;BMP280;68312;53.502;10.030;2023-04-25T13:55:05;101317.00;;;11.55
77728;BMP280;68312;53.502;10.030;2023-04-25T13:57:33;101333.19;;;11.95